createdAt,value
2018-06-12T00:00:05.393Z,99.90
2018-06-12T00:02:33.801Z,99.90
2018-06-12T00:05:02.628Z,99.90
2018-06-12T00:07:31.048Z,99.90
2018-06-12T00:09:59.370Z,99.90
2018-06-12T00:12:27.804Z,99.90
2018-06-12T00:14:56.492Z,99.90
2018-06-12T00:17:24.924Z,99.90
2018-06-12T00:19:53.238Z,99.90
2018-06-12T00:22:22.409Z,99.90
2018-06-12T00:24:50.871Z,99.90
2018-06-12T00:27:19.429Z,99.90
2018-06-12T00:32:15.821Z,99.90
2018-06-12T00:34:44.244Z,99.90
2018-06-12T00:37:12.688Z,99.90
2018-06-12T00:39:41.054Z,99.90
2018-06-12T00:42:09.357Z,99.90
2018-06-12T00:44:37.765Z,99.90
2018-06-12T00:47:06.114Z,99.90
2018-06-12T00:49:34.505Z,99.90
2018-06-12T00:52:02.948Z,99.90
2018-06-12T00:54:31.404Z,99.90
2018-06-12T00:57:08.113Z,99.90
2018-06-12T00:59:36.565Z,99.90
2018-06-12T01:02:05.344Z,99.90
2018-06-12T01:04:33.833Z,99.90
2018-06-12T01:07:02.258Z,99.90
2018-06-12T01:09:30.692Z,99.90
2018-06-12T01:11:59.120Z,99.90
2018-06-12T01:14:27.499Z,99.90
2018-06-12T01:16:55.791Z,99.90
2018-06-12T01:19:24.152Z,99.90
2018-06-12T01:21:52.520Z,99.90
2018-06-12T01:24:20.870Z,99.90
2018-06-12T01:26:49.266Z,99.90
2018-06-12T01:29:17.731Z,99.90
2018-06-12T01:31:46.153Z,99.90
2018-06-12T01:34:15.398Z,99.90
2018-06-12T01:36:43.879Z,99.90
2018-06-12T01:39:12.293Z,99.90
2018-06-12T01:41:40.699Z,99.90
2018-06-12T01:44:09.090Z,99.90
2018-06-12T01:46:37.364Z,99.90
2018-06-12T01:49:05.803Z,99.90
2018-06-12T01:51:34.236Z,99.90
2018-06-12T01:54:02.626Z,99.90
2018-06-12T01:56:31.057Z,99.90
2018-06-12T01:58:59.445Z,99.90
2018-06-12T02:01:27.811Z,99.90
2018-06-12T02:03:56.365Z,99.90
2018-06-12T02:06:24.738Z,99.90
2018-06-12T02:08:53.187Z,99.90
2018-06-12T02:11:21.543Z,99.90
2018-06-12T02:13:49.916Z,99.90
2018-06-12T02:16:18.322Z,99.90
2018-06-12T02:18:46.730Z,99.90
2018-06-12T02:21:15.136Z,99.90
2018-06-12T02:23:43.496Z,99.90
2018-06-12T02:26:11.879Z,99.90
2018-06-12T02:28:40.247Z,99.90
2018-06-12T02:31:08.644Z,99.90
2018-06-12T02:33:36.949Z,99.90
2018-06-12T02:36:05.763Z,99.90
2018-06-12T02:38:34.229Z,99.90
2018-06-12T02:41:02.609Z,99.90
2018-06-12T02:43:30.998Z,99.90
2018-06-12T02:45:59.363Z,99.90
2018-06-12T02:48:27.887Z,99.90
2018-06-12T02:50:56.277Z,99.90
2018-06-12T02:53:24.620Z,99.90
2018-06-12T02:55:53.016Z,99.90
2018-06-12T02:58:21.367Z,99.90
2018-06-12T03:00:49.748Z,99.90
2018-06-12T03:03:18.080Z,99.90
2018-06-12T03:05:46.501Z,99.90
2018-06-12T03:08:14.962Z,99.90
2018-06-12T03:10:43.361Z,99.90
2018-06-12T03:13:11.741Z,99.90
2018-06-12T03:15:40.136Z,99.90
2018-06-12T03:18:08.609Z,99.90
2018-06-12T03:20:43.852Z,99.90
2018-06-12T03:23:12.394Z,99.90
2018-06-12T03:25:40.745Z,99.90
2018-06-12T03:28:09.809Z,99.90
2018-06-12T03:30:38.227Z,99.90
2018-06-12T03:33:06.660Z,99.90
2018-06-12T03:35:35.057Z,99.90
2018-06-12T03:38:03.530Z,99.90
2018-06-12T03:40:31.926Z,99.90
2018-06-12T03:43:00.351Z,99.90
2018-06-12T03:47:56.990Z,99.90
2018-06-12T03:50:25.433Z,99.90
2018-06-12T03:52:53.755Z,99.90
2018-06-12T03:57:50.189Z,99.90
2018-06-12T04:00:18.629Z,99.90
2018-06-12T04:02:47.061Z,99.90
2018-06-12T04:05:15.518Z,99.90
2018-06-12T04:07:44.008Z,99.90
2018-06-12T04:10:12.454Z,99.90
2018-06-12T04:12:40.869Z,99.90
2018-06-12T04:15:09.287Z,99.90
2018-06-12T04:17:37.685Z,99.90
2018-06-12T04:20:06.033Z,99.90
2018-06-12T04:22:34.850Z,99.90
2018-06-12T04:25:03.268Z,99.90
2018-06-12T04:27:31.663Z,99.90
2018-06-12T04:30:00.094Z,99.90
2018-06-12T04:32:28.501Z,99.90
2018-06-12T04:34:57.001Z,99.90
2018-06-12T04:37:25.452Z,99.90
2018-06-12T04:39:53.869Z,99.90
2018-06-12T04:42:22.464Z,99.90
2018-06-12T04:44:50.835Z,99.90
2018-06-12T04:47:19.180Z,99.90
2018-06-12T04:49:47.525Z,99.90
2018-06-12T04:52:15.955Z,99.90
2018-06-12T04:54:44.413Z,99.90
2018-06-12T04:57:12.848Z,99.90
2018-06-12T04:59:41.196Z,99.90
2018-06-12T05:02:09.597Z,99.90
2018-06-12T05:04:38.038Z,99.90
2018-06-12T05:07:06.392Z,99.90
2018-06-12T05:09:34.770Z,99.90
2018-06-12T05:12:03.216Z,99.90
2018-06-12T05:14:31.553Z,99.90
2018-06-12T05:16:59.976Z,99.90
2018-06-12T05:19:28.354Z,99.90
2018-06-12T05:21:56.792Z,99.90
2018-06-12T05:24:25.147Z,99.90
2018-06-12T05:26:53.725Z,99.90
2018-06-12T05:29:22.036Z,99.90
2018-06-12T05:31:50.437Z,99.90
2018-06-12T05:34:18.874Z,99.90
2018-06-12T05:36:47.279Z,99.90
2018-06-12T05:39:15.643Z,99.90
2018-06-12T05:41:44.115Z,99.90
2018-06-12T05:44:12.435Z,99.90
2018-06-12T05:46:40.923Z,99.90
2018-06-12T05:49:10.231Z,99.90
2018-06-12T05:51:38.547Z,99.90
2018-06-12T05:54:06.956Z,99.90
2018-06-12T05:56:35.406Z,99.90
2018-06-12T05:59:10.282Z,99.90
2018-06-12T06:01:38.720Z,99.90
2018-06-12T06:04:07.150Z,99.90
2018-06-12T06:06:35.540Z,99.90
2018-06-12T06:09:05.770Z,99.90
2018-06-12T06:11:34.196Z,99.90
2018-06-12T06:14:08.934Z,99.90
2018-06-12T06:16:37.311Z,99.90
2018-06-12T06:19:05.714Z,99.90
2018-06-12T06:21:34.086Z,99.90
2018-06-12T06:24:02.558Z,99.90
2018-06-12T06:26:31.011Z,99.90
2018-06-12T06:28:59.438Z,99.90
2018-06-12T06:31:27.821Z,99.90
2018-06-12T06:33:56.309Z,99.90
2018-06-12T06:36:24.811Z,99.90
2018-06-12T06:38:53.294Z,99.90
2018-06-12T06:41:21.717Z,99.90
2018-06-12T06:43:50.144Z,99.90
2018-06-12T06:46:18.607Z,99.90
2018-06-12T06:48:47.109Z,99.90
2018-06-12T06:51:15.627Z,99.90
2018-06-12T06:53:44.100Z,99.90
2018-06-12T06:56:12.552Z,99.90
2018-06-12T06:58:40.958Z,99.90
2018-06-12T07:01:09.275Z,99.90
2018-06-12T07:03:37.748Z,99.90
2018-06-12T07:06:06.167Z,99.90
2018-06-12T07:08:34.541Z,99.90
2018-06-12T07:11:03.152Z,99.90
2018-06-12T07:15:59.770Z,99.90
2018-06-12T07:18:28.118Z,99.90
2018-06-12T07:21:18.615Z,99.90
2018-06-12T07:23:47.150Z,99.90
2018-06-12T07:26:15.672Z,99.90
2018-06-12T07:28:44.400Z,99.90
2018-06-12T07:31:12.851Z,99.90
2018-06-12T07:33:41.472Z,99.90
2018-06-12T07:36:10.351Z,99.90
2018-06-12T07:38:38.759Z,99.90
2018-06-12T07:43:35.388Z,99.90
2018-06-12T07:46:03.929Z,99.90
2018-06-12T07:48:32.387Z,99.90
2018-06-12T07:51:00.954Z,99.90
2018-06-12T07:53:29.399Z,99.90
2018-06-12T07:55:57.816Z,99.90
2018-06-12T07:58:26.326Z,99.90
2018-06-12T08:00:55.098Z,99.90
2018-06-12T08:03:23.460Z,99.90
2018-06-12T08:05:51.880Z,99.90
2018-06-12T08:08:20.236Z,99.90
2018-06-12T08:10:48.537Z,99.90
2018-06-12T08:13:16.904Z,99.90
2018-06-12T08:15:45.363Z,99.90
2018-06-12T08:18:13.931Z,99.90
2018-06-12T08:20:42.357Z,99.90
2018-06-12T08:23:10.735Z,99.90
2018-06-12T08:25:39.138Z,99.90
2018-06-12T08:28:07.748Z,99.90
2018-06-12T08:30:36.279Z,99.90
2018-06-12T08:33:04.708Z,99.90
2018-06-12T08:35:33.115Z,99.90
2018-06-12T08:38:01.549Z,99.90
2018-06-12T08:40:29.940Z,99.90
2018-06-12T08:42:58.430Z,99.90
2018-06-12T08:45:26.878Z,99.90
2018-06-12T08:47:55.299Z,99.90
2018-06-12T08:50:23.855Z,99.90
2018-06-12T08:52:52.322Z,99.90
2018-06-12T08:55:20.791Z,99.90
2018-06-12T08:57:49.107Z,99.90
2018-06-12T09:00:17.485Z,99.90
2018-06-12T09:02:45.924Z,99.90
2018-06-12T09:05:14.392Z,99.90
2018-06-12T09:07:42.765Z,99.90
2018-06-12T09:10:11.080Z,99.90
2018-06-12T09:12:39.491Z,99.90
2018-06-12T09:15:07.865Z,99.90
2018-06-12T09:20:05.088Z,99.90
2018-06-12T09:22:33.548Z,99.90
2018-06-12T09:25:02.091Z,99.90
2018-06-12T09:27:34.768Z,99.90
2018-06-12T09:30:03.215Z,99.90
2018-06-12T09:32:31.712Z,99.90
2018-06-12T09:35:00.103Z,99.90
2018-06-12T09:37:28.458Z,98.80
2018-06-12T09:39:57.233Z,98.60
2018-06-12T09:42:26.090Z,98.80
2018-06-12T09:44:54.537Z,98.60
2018-06-12T09:49:51.194Z,95.80
2018-06-12T09:52:19.682Z,95.60
2018-06-12T09:54:48.129Z,96.10
2018-06-12T09:57:16.436Z,96.90
2018-06-12T09:59:44.832Z,94.50
2018-06-12T10:02:13.228Z,93.30
2018-06-12T10:04:41.613Z,92.70
2018-06-12T10:07:10.255Z,92.20
2018-06-12T10:09:38.641Z,91.40
2018-06-12T10:12:07.027Z,91.30
2018-06-12T10:14:35.380Z,91.30
2018-06-12T10:17:04.464Z,92.20
2018-06-12T10:19:33.138Z,90.90
2018-06-12T10:22:01.665Z,90.30
2018-06-12T10:24:30.280Z,90.40
2018-06-12T10:26:59.009Z,91.50
2018-06-12T10:29:27.446Z,90.30
2018-06-12T10:31:55.735Z,90.10
2018-06-12T10:34:24.160Z,86.00
2018-06-12T10:36:52.681Z,88.60
2018-06-12T10:39:21.481Z,87.60
2018-06-12T10:41:49.887Z,88.60
2018-06-12T10:44:18.458Z,88.50
2018-06-12T10:46:46.896Z,88.70
2018-06-12T10:49:15.442Z,87.60
2018-06-12T10:51:43.895Z,86.20
2018-06-12T10:54:12.370Z,89.10
2018-06-12T10:56:41.127Z,89.00
2018-06-12T10:59:10.239Z,89.50
2018-06-12T11:01:38.743Z,89.20
2018-06-12T11:04:07.128Z,89.40
2018-06-12T11:06:36.636Z,89.10
2018-06-12T11:09:06.597Z,90.10
2018-06-12T11:11:35.141Z,90.50
2018-06-12T11:14:03.558Z,89.20
2018-06-12T11:16:31.993Z,89.40
2018-06-12T11:19:00.768Z,89.60
2018-06-12T11:21:29.445Z,88.50
2018-06-12T11:23:58.288Z,90.70
2018-06-12T11:26:26.670Z,90.80
2018-06-12T11:28:55.079Z,90.40
2018-06-12T11:31:23.578Z,91.20
2018-06-12T11:33:51.971Z,91.60
2018-06-12T11:36:20.528Z,91.60
2018-06-12T11:38:49.123Z,91.10
2018-06-12T11:41:17.753Z,91.20
2018-06-12T11:43:46.152Z,91.00
2018-06-12T11:46:14.525Z,90.50
2018-06-12T11:48:43.053Z,89.10
2018-06-12T11:51:11.482Z,90.10
2018-06-12T11:53:39.879Z,91.30
2018-06-12T11:56:08.307Z,88.50
2018-06-12T11:58:37.057Z,89.40
2018-06-12T12:01:05.753Z,87.00
2018-06-12T12:03:34.304Z,89.60
2018-06-12T12:06:02.857Z,90.20
2018-06-12T12:08:31.225Z,88.40
2018-06-12T12:10:59.594Z,88.70
2018-06-12T12:13:28.616Z,90.20
2018-06-12T12:15:57.135Z,89.80
2018-06-12T12:18:25.610Z,91.20
2018-06-12T12:23:22.344Z,93.40
2018-06-12T12:25:50.908Z,93.20
2018-06-12T12:28:19.507Z,94.60
2018-06-12T12:30:47.964Z,94.50
2018-06-12T12:33:16.369Z,96.60
2018-06-12T12:35:44.883Z,96.80
2018-06-12T12:38:13.429Z,97.80
2018-06-12T12:40:42.389Z,97.80
2018-06-12T12:43:10.779Z,98.40
2018-06-12T12:45:39.302Z,99.60
2018-06-12T12:48:07.834Z,99.90
2018-06-12T12:50:36.232Z,99.90
2018-06-12T12:53:04.913Z,99.90
2018-06-12T12:55:33.843Z,99.90
2018-06-12T12:58:02.748Z,99.90
2018-06-12T13:00:31.100Z,99.90
2018-06-12T13:02:59.541Z,99.90
2018-06-12T13:05:28.076Z,99.90
2018-06-12T13:07:56.719Z,99.90
2018-06-12T13:10:25.738Z,99.90
2018-06-12T13:12:54.180Z,99.90
2018-06-12T13:15:22.792Z,99.90
2018-06-12T13:17:51.210Z,99.90
2018-06-12T13:20:19.607Z,99.90
2018-06-12T13:22:48.122Z,99.90
2018-06-12T13:25:16.564Z,99.90
2018-06-12T13:27:44.996Z,99.90
2018-06-12T13:30:13.480Z,99.40
2018-06-12T13:32:41.997Z,98.60
2018-06-12T13:35:10.475Z,99.10
2018-06-12T13:37:39.026Z,97.80
2018-06-12T13:40:07.426Z,98.30
2018-06-12T13:42:35.997Z,97.80
2018-06-12T13:45:04.447Z,98.50
2018-06-12T13:47:32.809Z,99.10
2018-06-12T13:50:01.328Z,97.70
2018-06-12T13:52:29.736Z,97.70
2018-06-12T13:54:58.281Z,97.10
2018-06-12T13:57:26.723Z,96.40
2018-06-12T13:59:55.362Z,94.60
2018-06-12T14:02:23.812Z,94.60
2018-06-12T14:04:52.218Z,96.00
2018-06-12T14:07:20.622Z,94.30
2018-06-12T14:09:49.023Z,93.80
2018-06-12T14:12:17.356Z,95.20
2018-06-12T14:14:45.858Z,97.20
2018-06-12T14:17:14.281Z,94.80
2018-06-12T14:19:42.737Z,94.10
2018-06-12T14:22:11.126Z,95.60
2018-06-12T14:24:39.586Z,93.60
2018-06-12T14:27:08.038Z,92.00
2018-06-12T14:29:36.422Z,92.70
2018-06-12T14:32:04.847Z,93.20
2018-06-12T14:34:33.246Z,92.10
2018-06-12T14:37:01.684Z,90.60
2018-06-12T14:39:30.135Z,90.80
2018-06-12T14:41:58.525Z,92.60
2018-06-12T14:44:26.928Z,92.60
2018-06-12T14:46:55.386Z,92.50
2018-06-12T14:49:23.775Z,92.70
2018-06-12T14:51:52.198Z,91.80
2018-06-12T14:54:20.540Z,90.70
2018-06-12T14:56:48.917Z,89.70
2018-06-12T14:59:17.317Z,87.50
2018-06-12T15:01:45.748Z,91.10
2018-06-12T15:04:14.097Z,92.00
2018-06-12T15:06:42.521Z,91.80
2018-06-12T15:09:10.907Z,91.80
2018-06-12T15:11:39.257Z,92.70
2018-06-12T15:14:07.630Z,93.20
2018-06-12T15:16:36.023Z,94.00
2018-06-12T15:19:04.422Z,95.00
2018-06-12T15:21:32.836Z,95.80
2018-06-12T15:24:01.341Z,96.10
2018-06-12T15:26:29.801Z,97.40
2018-06-12T15:28:58.135Z,95.50
2018-06-12T15:31:26.481Z,92.20
2018-06-12T15:33:55.029Z,91.60
2018-06-12T15:36:23.446Z,91.40
2018-06-12T15:38:51.833Z,91.70
2018-06-12T15:41:20.281Z,92.60
2018-06-12T15:43:48.664Z,93.70
2018-06-12T15:46:17.118Z,92.70
2018-06-12T15:48:45.460Z,92.70
2018-06-12T15:51:13.818Z,93.90
2018-06-12T15:53:42.239Z,93.30
2018-06-12T15:56:10.711Z,93.90
2018-06-12T15:58:39.136Z,94.20
2018-06-12T16:01:07.596Z,93.20
2018-06-12T16:03:36.043Z,92.80
2018-06-12T16:06:04.397Z,94.30
2018-06-12T16:08:32.735Z,93.60
2018-06-12T16:11:01.186Z,92.80
2018-06-12T16:13:29.595Z,91.10
2018-06-12T16:15:57.994Z,89.20
2018-06-12T16:18:26.334Z,90.70
2018-06-12T16:20:55.433Z,90.50
2018-06-12T16:23:23.853Z,92.90
2018-06-12T16:25:52.602Z,93.20
2018-06-12T16:28:20.937Z,94.50
2018-06-12T16:30:49.468Z,94.70
2018-06-12T16:33:17.908Z,96.90
2018-06-12T16:35:46.250Z,95.90
2018-06-12T16:38:14.720Z,97.10
2018-06-12T16:40:43.133Z,98.80
2018-06-12T16:43:11.612Z,99.90
2018-06-12T16:45:39.993Z,99.90
2018-06-12T16:48:08.567Z,99.90
2018-06-12T16:50:37.049Z,99.90
2018-06-12T16:53:06.104Z,99.90
2018-06-12T16:55:34.510Z,99.90
2018-06-12T16:58:03.044Z,99.90
2018-06-12T17:00:31.450Z,99.90
2018-06-12T17:02:59.886Z,99.90
2018-06-12T17:05:28.384Z,99.90
2018-06-12T17:07:56.799Z,99.90
2018-06-12T17:10:25.223Z,99.90
2018-06-12T17:12:53.831Z,99.90
2018-06-12T17:15:22.348Z,99.90
2018-06-12T17:17:50.791Z,99.90
2018-06-12T17:20:19.811Z,99.90
2018-06-12T17:22:48.202Z,99.90
2018-06-12T17:25:16.539Z,99.90
2018-06-12T17:27:45.041Z,99.90
2018-06-12T17:30:13.388Z,99.90
2018-06-12T17:32:41.920Z,99.90
2018-06-12T17:35:10.498Z,99.90
2018-06-12T17:37:38.875Z,99.90
2018-06-12T17:40:07.286Z,99.90
2018-06-12T17:42:35.774Z,99.90
2018-06-12T17:45:04.276Z,99.90
2018-06-12T17:47:32.679Z,99.90
2018-06-12T17:50:01.148Z,99.90
2018-06-12T17:52:29.575Z,99.90
2018-06-12T17:54:57.938Z,99.90
2018-06-12T17:57:26.562Z,99.90
2018-06-12T17:59:54.997Z,99.90
2018-06-12T18:02:23.450Z,99.90
2018-06-12T18:04:51.922Z,99.90
2018-06-12T18:07:20.300Z,99.90
2018-06-12T18:09:48.692Z,99.90
2018-06-12T18:12:17.106Z,99.90
2018-06-12T18:14:45.668Z,99.90
2018-06-12T18:17:14.068Z,99.90
2018-06-12T18:19:42.539Z,99.90
2018-06-12T18:22:10.851Z,99.90
2018-06-12T18:24:44.766Z,99.90
2018-06-12T18:27:16.316Z,99.90
2018-06-12T18:29:45.056Z,99.90
2018-06-12T18:32:13.513Z,99.90
2018-06-12T18:34:41.978Z,99.90
2018-06-12T18:37:10.295Z,99.90
2018-06-12T18:39:38.778Z,99.90
2018-06-12T18:42:07.198Z,99.90
2018-06-12T18:44:35.641Z,99.90
2018-06-12T18:47:04.062Z,99.90
2018-06-12T18:52:00.665Z,99.90
2018-06-12T18:54:29.106Z,99.90
2018-06-12T18:56:57.630Z,99.90
2018-06-12T18:59:26.095Z,99.90
2018-06-12T19:01:54.466Z,99.90
2018-06-12T19:04:23.350Z,99.90
2018-06-12T19:06:51.671Z,99.90
2018-06-12T19:09:20.118Z,99.90
2018-06-12T19:11:49.050Z,99.90
2018-06-12T19:14:17.521Z,99.90
2018-06-12T19:16:45.926Z,99.90
2018-06-12T19:19:14.466Z,99.90
2018-06-12T19:21:42.849Z,99.90
2018-06-12T19:24:11.224Z,99.90
2018-06-12T19:26:39.681Z,99.90
2018-06-12T19:29:08.091Z,99.90
2018-06-12T19:31:36.464Z,99.90
2018-06-12T19:34:04.858Z,99.90
2018-06-12T19:36:33.228Z,99.90
2018-06-12T19:39:01.659Z,99.90
2018-06-12T19:41:30.201Z,99.90
2018-06-12T19:43:58.696Z,99.90
2018-06-12T19:46:27.142Z,99.90
2018-06-12T19:48:55.705Z,99.90
2018-06-12T19:51:24.034Z,99.90
2018-06-12T19:53:52.445Z,99.90
2018-06-12T19:56:20.941Z,99.90
2018-06-12T19:58:49.424Z,99.90
2018-06-12T20:01:17.857Z,99.90
2018-06-12T20:03:46.305Z,99.90
2018-06-12T20:06:14.786Z,99.90
2018-06-12T20:08:43.167Z,99.90
2018-06-12T20:11:11.586Z,99.90
2018-06-12T20:13:39.999Z,99.90
2018-06-12T20:16:08.445Z,99.90
2018-06-12T20:18:36.793Z,99.90
2018-06-12T20:21:05.145Z,99.90
2018-06-12T20:23:33.680Z,99.90
2018-06-12T20:26:02.174Z,99.90
2018-06-12T20:28:30.654Z,99.90
2018-06-12T20:30:59.626Z,99.90
2018-06-12T20:33:28.161Z,99.90
2018-06-12T20:35:56.857Z,99.90
2018-06-12T20:38:25.290Z,99.90
2018-06-12T20:40:53.616Z,99.90
2018-06-12T20:43:22.046Z,99.90
2018-06-12T20:45:50.624Z,99.90
2018-06-12T20:48:19.000Z,99.90
2018-06-12T20:50:47.375Z,99.90
2018-06-12T20:53:15.885Z,99.90
2018-06-12T20:55:44.285Z,99.90
2018-06-12T20:58:12.799Z,99.90
2018-06-12T21:00:41.350Z,99.90
2018-06-12T21:03:09.679Z,99.90
2018-06-12T21:05:38.093Z,99.90
2018-06-12T21:08:07.024Z,99.90
2018-06-12T21:10:35.467Z,99.90
2018-06-12T21:13:03.864Z,99.90
2018-06-12T21:15:32.327Z,99.90
2018-06-12T21:18:01.283Z,99.90
2018-06-12T21:20:29.660Z,99.90
2018-06-12T21:22:58.167Z,99.90
2018-06-12T21:25:26.590Z,99.90
2018-06-12T21:27:54.983Z,99.90
2018-06-12T21:30:23.519Z,99.90
2018-06-12T21:32:52.008Z,99.90
2018-06-12T21:35:20.410Z,99.90
2018-06-12T21:37:48.852Z,99.90
2018-06-12T21:40:17.230Z,99.90
2018-06-12T21:42:45.569Z,99.90
2018-06-12T21:45:14.096Z,99.90
2018-06-12T21:50:10.678Z,99.90
2018-06-12T21:52:39.073Z,99.90
2018-06-12T21:55:07.530Z,99.90
2018-06-12T21:57:36.050Z,99.90
2018-06-12T22:00:05.708Z,99.90
2018-06-12T22:02:34.150Z,99.90
2018-06-12T22:05:02.606Z,99.90
2018-06-12T22:07:30.948Z,99.90
2018-06-12T22:09:59.363Z,99.90
2018-06-12T22:12:27.754Z,99.90
2018-06-12T22:14:56.208Z,99.90
2018-06-12T22:17:24.746Z,99.90
2018-06-12T22:19:53.274Z,99.90
2018-06-12T22:22:21.676Z,99.90
2018-06-12T22:24:50.117Z,99.90
2018-06-12T22:27:18.551Z,99.90
2018-06-12T22:29:47.140Z,99.90
2018-06-12T22:32:15.755Z,99.90
2018-06-12T22:34:44.114Z,99.90
2018-06-12T22:37:12.514Z,99.90
2018-06-12T22:39:40.962Z,99.90
2018-06-12T22:42:09.339Z,99.90
2018-06-12T22:44:37.876Z,99.90
2018-06-12T22:47:06.328Z,99.90
2018-06-12T22:49:34.723Z,99.90
2018-06-12T22:52:03.114Z,99.90
2018-06-12T22:54:31.597Z,99.90
2018-06-12T22:57:00.031Z,99.90
2018-06-12T22:59:28.447Z,99.90
2018-06-12T23:01:56.857Z,99.90
2018-06-12T23:04:25.388Z,99.90
2018-06-12T23:06:53.878Z,99.90
2018-06-12T23:09:22.262Z,99.90
2018-06-12T23:11:50.705Z,99.90
2018-06-12T23:14:19.074Z,99.90
2018-06-12T23:16:47.502Z,99.90
2018-06-12T23:19:15.914Z,99.90
2018-06-12T23:21:55.541Z,99.90
2018-06-12T23:24:23.903Z,99.90
2018-06-12T23:26:52.293Z,99.90
2018-06-12T23:29:20.811Z,99.90
2018-06-12T23:31:49.325Z,99.90
2018-06-12T23:34:17.777Z,99.90
2018-06-12T23:36:46.274Z,99.90
2018-06-12T23:39:14.681Z,99.90
2018-06-12T23:41:43.094Z,99.90
2018-06-12T23:44:11.466Z,99.90
2018-06-12T23:46:39.943Z,99.90
2018-06-12T23:49:08.399Z,99.90
2018-06-12T23:51:36.930Z,99.90
2018-06-12T23:54:05.456Z,99.90
2018-06-12T23:56:33.947Z,99.90
2018-06-12T23:59:02.367Z,99.90
